Nefterudovoz 47m — UFFP — position and weather

sailwx.info

Track history (hours):
 
Tides and Currents Weather Stations Pressure Air Temp Water Temp Dewpoint Dewpoint Depression Visibility Wind Speed Wind Dir Waves Ship Positions

Nefterudovoz 47m

Last reported at 2016-Sep-10 03:27 UTC. Time now 2016-Sep-27 19:00 UTC.
Position N 45°31' E 036°48'.
Warning: this ship's position is 17 days out of date.

Length 119 m; draft 2.6 m.

Type: Tanker. MMSI: 273347800.

Date/timePositionNaut miles runAvg speedWind from/ knotsBaromVisibWave heightAir tempDewpointWater temp
2016-Sep-10 03:27N 45°31' E 036°48'6 6.8
2016-Sep-10 02:33N 45°26' E 036°43'7 6.7
2016-Sep-10 01:34N 45°20' E 036°38'7 6.8
2016-Sep-10 00:33N 45°17' E 036°29'4 4.3
2016-Sep-09 23:32N 45°13' E 036°29'3 3.0
2016-Sep-09 22:27N 45°10' E 036°32'0 0.0
2016-Sep-09 21:30N 45°10' E 036°32'0 0.0
2016-Sep-09 19:21N 45°10' E 036°32'5 5.5
2016-Sep-09 18:30N 45°06' E 036°30'54 5.8
2016-Sep-09 09:15N 44°16' E 036°02'5 6.9
2016-Sep-09 08:33N 44°16' E 035°55'27 6.4
2016-Sep-09 04:25N 44°22' E 035°19'7 7.3
2016-Sep-09 03:27N 44°29' E 035°18'14 6.8
2016-Sep-09 01:22N 44°27' E 034°58'6 6.6
2016-Sep-09 00:25N 44°25' E 034°50'6 6.6
2016-Sep-08 23:33N 44°23' E 034°42'13 6.4
2016-Sep-08 21:33N 44°18' E 034°26'  
2016-Sep-06 03:14N 44°33' E 033°11'5 7.6
2016-Sep-06 02:33N 44°30' E 033°16'37 6.9
2016-Sep-05 21:14N 44°17' E 034°04'6 8.0
2016-Sep-05 20:31N 44°17' E 034°12'8 7.9
2016-Sep-05 19:33N 44°19' E 034°23'8 7.9
2016-Sep-05 18:33N 44°22' E 034°33'8 7.9
2016-Sep-05 17:34N 44°24' E 034°44'8 7.8
2016-Sep-05 16:29N 44°27' E 034°55'7 7.5
2016-Sep-05 15:32N 44°29' E 035°04'59 7.2
2016-Sep-05 07:20N 44°46' E 036°24'33 6.6
2016-Sep-05 02:25N 45°18' E 036°29'4 4.9
2016-Sep-05 01:33N 45°20' E 036°35'6 5.5
2016-Sep-05 00:33N 45°23' E 036°41'1 1.2
2016-Sep-04 23:34N 45°24' E 036°42'  
Track history (hours):
 
Tides and Currents Weather Stations Pressure Air Temp Water Temp Dewpoint Dewpoint Depression Visibility Wind Speed Wind Dir Waves Ship Positions

Nefterudovoz 47m

Last reported at 2016-Sep-10 03:27 UTC. Time now 2016-Sep-27 19:00 UTC.
Position N 45°31' E 036°48'.
Warning: this ship's position is 17 days out of date.

Length 119 m; draft 2.6 m.

Type: Tanker. MMSI: 273347800.

Date/timePositionNaut miles runAvg speedWind from/ knotsBaromVisibWave heightAir tempDewpointWater temp
2016-Sep-10 03:27N 45°31' E 036°48'6 6.8
2016-Sep-10 02:33N 45°26' E 036°43'7 6.7
2016-Sep-10 01:34N 45°20' E 036°38'7 6.8
2016-Sep-10 00:33N 45°17' E 036°29'4 4.3
2016-Sep-09 23:32N 45°13' E 036°29'3 3.0
2016-Sep-09 22:27N 45°10' E 036°32'0 0.0
2016-Sep-09 21:30N 45°10' E 036°32'0 0.0
2016-Sep-09 19:21N 45°10' E 036°32'5 5.5
2016-Sep-09 18:30N 45°06' E 036°30'54 5.8
2016-Sep-09 09:15N 44°16' E 036°02'5 6.9
2016-Sep-09 08:33N 44°16' E 035°55'27 6.4
2016-Sep-09 04:25N 44°22' E 035°19'7 7.3
2016-Sep-09 03:27N 44°29' E 035°18'14 6.8
2016-Sep-09 01:22N 44°27' E 034°58'6 6.6
2016-Sep-09 00:25N 44°25' E 034°50'6 6.6
2016-Sep-08 23:33N 44°23' E 034°42'13 6.4
2016-Sep-08 21:33N 44°18' E 034°26'  
2016-Sep-06 03:14N 44°33' E 033°11'5 7.6
2016-Sep-06 02:33N 44°30' E 033°16'37 6.9
2016-Sep-05 21:14N 44°17' E 034°04'6 8.0
2016-Sep-05 20:31N 44°17' E 034°12'8 7.9
2016-Sep-05 19:33N 44°19' E 034°23'8 7.9
2016-Sep-05 18:33N 44°22' E 034°33'8 7.9
2016-Sep-05 17:34N 44°24' E 034°44'8 7.8
2016-Sep-05 16:29N 44°27' E 034°55'7 7.5
2016-Sep-05 15:32N 44°29' E 035°04'59 7.2
2016-Sep-05 07:20N 44°46' E 036°24'33 6.6
2016-Sep-05 02:25N 45°18' E 036°29'4 4.9
2016-Sep-05 01:33N 45°20' E 036°35'6 5.5
2016-Sep-05 00:33N 45°23' E 036°41'1 1.2
2016-Sep-04 23:34N 45°24' E 036°42'  

Dump ship's entire track history